Time;durP1;ratioP1;P1;durP2;ratioP2;P2;SDS_P1;SDS_P2;PMS_P1;PMS_P2;Temp;Humidity;BMP_temperature;BMP_pressure;BME280_temperature;BME280_humidity;BME280_pressure;Samples;Min_cycle;Max_cycle;Signal;HPM_P1;HPM_P2
2022/10/21 00:00:03;;;;;;;62.25;25.77;;;12.70;99.90;;;;;;8343966;28;20029;-80
2022/10/21 00:04:04;;;;;;;46.40;23.20;;;12.60;99.90;;;;;;8360766;28;20036;-80
2022/10/21 00:08:04;;;;;;;52.15;24.60;;;12.90;99.90;;;;;;8352093;28;20037;-79
2022/10/21 00:12:05;;;;;;;39.20;21.70;;;12.80;99.90;;;;;;8343957;28;20114;-81
2022/10/21 00:16:09;;;;;;;44.13;22.30;;;13.30;99.90;;;;;;8369905;28;20034;-78
2022/10/21 00:20:11;;;;;;;48.95;22.88;;;12.90;99.90;;;;;;8351533;28;20035;-80
2022/10/21 00:24:12;;;;;;;46.83;23.38;;;12.80;99.90;;;;;;8351697;28;20032;-81
2022/10/21 00:28:12;;;;;;;52.45;25.40;;;12.70;99.90;;;;;;8350274;28;20035;-80
2022/10/21 00:32:13;;;;;;;48.80;24.33;;;12.80;99.90;;;;;;8344155;28;20416;-80
2022/10/21 00:36:14;;;;;;;37.90;21.52;;;12.90;99.90;;;;;;8359609;28;20033;-80
2022/10/21 00:40:15;;;;;;;38.75;21.40;;;13.10;99.90;;;;;;8369333;28;20029;-80
2022/10/21 00:44:15;;;;;;;46.97;21.77;;;13.30;99.90;;;;;;8341766;28;20020;-80
2022/10/21 00:48:38;;;;;;;52.67;23.15;;;13.10;99.90;;;;;;8350247;28;20044;-79
2022/10/21 00:52:39;;;;;;;36.38;19.48;;;12.90;99.90;;;;;;8339025;28;20056;-80
2022/10/21 00:56:42;;;;;;;38.03;20.73;;;13.10;99.90;;;;;;8354055;28;20124;-80
2022/10/21 01:00:43;;;;;;;55.67;23.40;;;12.80;99.90;;;;;;8352352;28;20049;-81
2022/10/21 01:04:45;;;;;;;45.00;21.02;;;12.60;99.90;;;;;;8352879;28;20017;-80
2022/10/21 01:08:45;;;;;;;51.05;23.08;;;12.40;99.90;;;;;;8353789;28;20040;-80
2022/10/21 01:13:15;;;;;;;56.92;23.70;;;12.30;99.90;;;;;;8353382;28;20017;-80
2022/10/21 01:17:29;;;;;;;46.28;18.67;;;12.20;99.90;;;;;;8344708;28;20031;-81
2022/10/21 01:21:35;;;;;;;51.85;22.40;;;12.50;99.90;;;;;;8354549;28;20025;-79
2022/10/21 01:25:54;;;;;;;55.72;24.02;;;12.60;99.90;;;;;;8359472;28;20052;-80
2022/10/21 01:30:13;;;;;;;53.17;22.98;;;12.60;99.90;;;;;;8368206;28;20064;-81
2022/10/21 01:34:19;;;;;;;48.88;23.15;;;12.50;99.90;;;;;;8350469;28;20025;-79
2022/10/21 01:38:32;;;;;;;44.45;20.98;;;12.70;99.90;;;;;;8368124;28;20496;-80
2022/10/21 01:42:41;;;;;;;48.83;21.80;;;13.00;99.90;;;;;;8343509;28;20520;-80
2022/10/21 01:47:11;;;;;;;38.25;20.90;;;12.90;99.90;;;;;;8351044;28;20021;-81
2022/10/21 01:51:12;;;;;;;45.95;23.35;;;13.00;99.90;;;;;;8335527;28;20033;-81
2022/10/21 01:55:17;;;;;;;50.25;22.90;;;12.70;99.90;;;;;;8350099;28;20025;-81
2022/10/21 01:59:20;;;;;;;55.28;24.50;;;12.60;99.90;;;;;;8345832;28;20104;-81
2022/10/21 02:03:25;;;;;;;50.63;23.85;;;12.50;99.90;;;;;;8367964;28;20052;-80
2022/10/21 02:07:27;;;;;;;66.95;25.00;;;12.60;99.90;;;;;;8345427;28;20025;-81
2022/10/21 02:11:28;;;;;;;101.30;22.20;;;12.50;99.90;;;;;;8344195;28;20017;-81
2022/10/21 02:15:31;;;;;;;56.97;21.00;;;12.70;99.90;;;;;;8353575;28;20509;-79
2022/10/21 02:19:31;;;;;;;47.45;22.48;;;12.80;99.90;;;;;;8345180;28;20021;-79
2022/10/21 02:24:03;;;;;;;57.63;22.92;;;12.60;99.90;;;;;;8352593;28;20027;-80
2022/10/21 02:28:04;;;;;;;49.42;23.63;;;12.50;99.90;;;;;;8372634;28;20025;-80
2022/10/21 02:32:30;;;;;;;49.63;24.13;;;12.40;99.90;;;;;;8371950;28;20069;-81
2022/10/21 02:36:54;;;;;;;53.55;24.45;;;12.50;99.90;;;;;;8354073;28;20116;-81
2022/10/21 02:41:02;;;;;;;52.53;23.48;;;12.60;99.90;;;;;;8372874;28;20093;-80
2022/10/21 02:45:04;;;;;;;63.53;25.13;;;12.70;99.90;;;;;;8342797;28;20028;-81
2022/10/21 02:49:05;;;;;;;59.20;25.60;;;12.60;99.90;;;;;;8376598;28;20074;-81
2022/10/21 02:53:07;;;;;;;55.28;24.60;;;12.50;99.90;;;;;;8376312;28;20036;-82
2022/10/21 02:57:08;;;;;;;52.13;24.70;;;12.60;99.90;;;;;;8357267;28;20021;-81
2022/10/21 03:01:08;;;;;;;48.03;22.52;;;12.70;99.90;;;;;;8359290;28;20029;-80
2022/10/21 03:05:11;;;;;;;49.95;24.17;;;12.80;99.90;;;;;;8379357;28;20083;-81
2022/10/21 03:09:12;;;;;;;52.67;22.80;;;12.80;99.90;;;;;;8354643;28;20025;-81
2022/10/21 03:13:12;;;;;;;46.75;22.60;;;13.00;99.90;;;;;;8363084;28;20045;-80
2022/10/21 03:17:13;;;;;;;43.55;22.35;;;12.80;99.90;;;;;;8373425;28;20053;-80
2022/10/21 03:21:13;;;;;;;40.13;21.40;;;12.90;99.90;;;;;;8368874;28;20051;-81
2022/10/21 03:25:14;;;;;;;49.78;26.50;;;13.10;99.90;;;;;;8369746;28;20124;-80
2022/10/21 03:29:14;;;;;;;53.53;25.48;;;13.00;99.90;;;;;;8374969;28;20045;-79
2022/10/21 03:33:15;;;;;;;44.00;23.83;;;12.80;99.90;;;;;;8350031;28;20037;-80
2022/10/21 03:37:16;;;;;;;41.70;23.38;;;13.00;99.90;;;;;;8353281;28;20032;-81
2022/10/21 03:41:16;;;;;;;51.85;26.48;;;13.10;99.90;;;;;;8334904;28;20029;-80
2022/10/21 03:45:17;;;;;;;63.20;27.55;;;12.70;99.90;;;;;;8331076;28;20034;-81
2022/10/21 03:49:17;;;;;;;45.25;26.17;;;12.70;99.90;;;;;;8321510;28;20159;-79
2022/10/21 03:53:18;;;;;;;45.47;24.52;;;12.90;99.90;;;;;;8335665;28;20021;-80
2022/10/21 03:57:19;;;;;;;51.72;24.38;;;12.70;99.90;;;;;;8336618;28;20021;-81
2022/10/21 04:01:19;;;;;;;57.05;26.35;;;12.50;99.90;;;;;;8365189;28;20717;-81
2022/10/21 04:05:20;;;;;;;62.15;26.77;;;12.30;99.90;;;;;;8354851;28;20025;-80
2022/10/21 04:09:20;;;;;;;76.43;26.45;;;12.40;99.90;;;;;;8342732;28;20164;-80
2022/10/21 04:13:21;;;;;;;63.45;26.58;;;12.20;99.90;;;;;;8346803;28;20033;-81
2022/10/21 04:17:21;;;;;;;63.58;27.23;;;12.20;99.90;;;;;;8352334;28;20481;-81
2022/10/21 04:21:22;;;;;;;64.50;27.05;;;12.30;99.90;;;;;;8363457;28;20036;-80
2022/10/21 04:25:22;;;;;;;58.50;26.75;;;12.30;99.90;;;;;;8344109;28;20057;-81
2022/10/21 04:29:24;;;;;;;60.67;26.13;;;12.30;99.90;;;;;;8346414;28;20495;-81
2022/10/21 04:33:25;;;;;;;57.08;23.55;;;12.30;99.90;;;;;;8344225;28;20033;-81
2022/10/21 04:37:25;;;;;;;61.13;24.35;;;12.40;99.90;;;;;;8348225;28;20029;-82
2022/10/21 04:41:26;;;;;;;51.92;24.77;;;12.50;99.90;;;;;;8341655;28;20051;-82
2022/10/21 04:45:26;;;;;;;51.30;23.60;;;12.50;99.90;;;;;;8327444;28;20032;-82
2022/10/21 04:49:27;;;;;;;58.60;25.55;;;12.40;99.90;;;;;;8332438;28;20049;-83
2022/10/21 04:53:27;;;;;;;57.70;25.35;;;12.50;99.90;;;;;;8372134;28;20641;-82
2022/10/21 04:57:28;;;;;;;55.50;25.08;;;12.50;99.90;;;;;;8342167;28;20030;-82
2022/10/21 05:01:28;;;;;;;54.00;24.45;;;12.40;99.90;;;;;;8329444;28;20048;-83
2022/10/21 05:05:29;;;;;;;53.45;25.02;;;12.40;99.90;;;;;;8348464;28;20040;-83
2022/10/21 05:09:29;;;;;;;51.10;23.95;;;12.60;99.90;;;;;;8349287;28;20060;-83
2022/10/21 05:13:30;;;;;;;61.53;25.40;;;12.40;99.90;;;;;;8363944;28;20440;-83
2022/10/21 05:17:31;;;;;;;43.08;21.73;;;12.40;99.90;;;;;;8372107;28;20435;-83
2022/10/21 05:21:31;;;;;;;47.55;21.80;;;12.70;99.90;;;;;;8363895;28;20017;-83
2022/10/21 05:25:32;;;;;;;64.65;31.00;;;12.50;99.90;;;;;;8379411;28;20155;-83
2022/10/21 05:29:32;;;;;;;94.13;25.70;;;12.40;99.90;;;;;;8356291;28;20059;-83
2022/10/21 05:33:33;;;;;;;79.38;24.85;;;12.20;99.90;;;;;;8322696;28;20021;-83
2022/10/21 05:37:33;;;;;;;77.50;25.00;;;12.20;99.90;;;;;;8360996;28;20021;-83
2022/10/21 05:41:34;;;;;;;45.40;22.52;;;12.20;99.90;;;;;;8357833;28;20016;-82
2022/10/21 05:45:35;;;;;;;50.47;23.17;;;12.70;99.90;;;;;;8337767;28;20031;-82
2022/10/21 05:49:35;;;;;;;56.17;23.75;;;12.60;99.90;;;;;;8378315;28;20021;-82
2022/10/21 05:53:38;;;;;;;73.28;23.17;;;12.40;99.90;;;;;;8329232;28;20025;-83
2022/10/21 05:57:39;;;;;;;130.73;23.08;;;12.30;99.90;;;;;;8343752;28;20021;-82
2022/10/21 06:01:39;;;;;;;53.55;21.50;;;12.80;99.90;;;;;;8353181;28;20052;-82
2022/10/21 06:05:40;;;;;;;62.20;23.40;;;12.80;99.90;;;;;;8337135;28;20027;-83
2022/10/21 06:09:41;;;;;;;48.47;20.73;;;12.40;99.90;;;;;;8349962;28;20025;-82
2022/10/21 06:13:41;;;;;;;51.30;22.90;;;12.50;99.90;;;;;;8338138;28;20029;-82
2022/10/21 06:17:42;;;;;;;66.20;25.10;;;12.30;99.90;;;;;;8347587;28;20036;-83
2022/10/21 06:21:43;;;;;;;83.80;24.13;;;12.20;99.90;;;;;;8337896;28;20036;-83
2022/10/21 06:25:53;;;;;;;79.18;24.50;;;12.30;99.90;;;;;;8361089;28;20027;-83
2022/10/21 06:29:54;;;;;;;62.33;23.67;;;12.20;99.90;;;;;;8335576;28;20103;-83
2022/10/21 06:33:55;;;;;;;61.92;23.70;;;12.30;99.90;;;;;;8345382;28;20227;-83
2022/10/21 06:37:55;;;;;;;58.55;23.17;;;12.30;99.90;;;;;;8351111;28;20037;-82
2022/10/21 06:41:56;;;;;;;57.05;24.77;;;12.40;99.90;;;;;;8356562;28;20029;-83
2022/10/21 06:46:07;;;;;;;49.63;23.65;;;12.50;99.90;;;;;;8357196;28;20025;-83
2022/10/21 06:50:08;;;;;;;45.97;23.45;;;12.70;99.90;;;;;;8361021;28;20031;-81
2022/10/21 06:54:08;;;;;;;34.78;20.40;;;12.80;99.90;;;;;;8362624;28;20031;-82
2022/10/21 06:58:09;;;;;;;39.90;21.35;;;13.20;99.90;;;;;;8351072;28;20033;-82
2022/10/21 07:02:10;;;;;;;38.22;19.88;;;13.10;99.90;;;;;;8389843;28;20103;-82
2022/10/21 07:06:10;;;;;;;36.38;20.95;;;13.10;99.90;;;;;;8352496;28;20071;-81
2022/10/21 07:10:11;;;;;;;39.25;20.63;;;13.30;99.90;;;;;;8345314;28;20029;-82
2022/10/21 07:14:12;;;;;;;38.58;22.27;;;13.30;99.90;;;;;;8353003;28;20033;-81
2022/10/21 07:18:12;;;;;;;44.60;24.30;;;13.00;99.90;;;;;;8361691;28;20032;-83
2022/10/21 07:22:14;;;;;;;47.47;24.77;;;12.90;99.90;;;;;;8359548;28;20508;-82
2022/10/21 07:26:14;;;;;;;57.00;27.17;;;12.90;99.90;;;;;;8350992;28;20029;-82
2022/10/21 07:30:15;;;;;;;53.38;26.30;;;12.80;99.90;;;;;;8359627;28;20123;-82
2022/10/21 07:34:16;;;;;;;45.00;24.58;;;12.80;99.90;;;;;;8337164;28;20050;-83
2022/10/21 07:38:17;;;;;;;42.33;22.20;;;12.90;99.90;;;;;;8373025;28;20037;-81
2022/10/21 07:42:18;;;;;;;38.17;21.60;;;13.10;99.90;;;;;;8356678;28;20025;-83
2022/10/21 07:46:20;;;;;;;37.83;21.80;;;13.40;99.90;;;;;;8349819;28;20572;-82
2022/10/21 07:50:21;;;;;;;33.75;17.70;;;13.40;99.90;;;;;;8370033;28;20080;-82
2022/10/21 07:54:21;;;;;;;44.95;22.77;;;13.40;99.90;;;;;;8346499;28;20021;-83
2022/10/21 07:58:22;;;;;;;33.78;20.77;;;13.30;99.90;;;;;;8351390;28;20052;-82
2022/10/21 08:02:23;;;;;;;36.97;22.05;;;13.40;99.90;;;;;;8345351;28;20051;-83
2022/10/21 08:06:25;;;;;;;31.35;19.80;;;13.50;99.90;;;;;;8341774;28;20056;-83
2022/10/21 08:10:25;;;;;;;40.35;22.83;;;13.40;99.90;;;;;;8328905;28;20408;-84
2022/10/21 08:14:26;;;;;;;42.92;23.90;;;13.30;99.90;;;;;;8337664;28;20027;-84
2022/10/21 08:18:27;;;;;;;43.28;22.85;;;13.40;99.90;;;;;;8333925;28;20021;-85
2022/10/21 08:22:27;;;;;;;40.85;22.75;;;13.40;99.90;;;;;;8346489;28;20487;-84
2022/10/21 08:26:28;;;;;;;39.03;22.50;;;13.40;99.90;;;;;;8341647;28;20075;-85
2022/10/21 08:30:30;;;;;;;37.60;19.15;;;13.50;99.90;;;;;;8332250;28;20376;-83
2022/10/21 08:34:31;;;;;;;44.20;20.38;;;13.60;99.90;;;;;;8340201;28;20030;-86
2022/10/21 08:38:32;;;;;;;39.63;21.25;;;13.60;99.90;;;;;;8334830;28;20028;-87
2022/10/21 08:42:32;;;;;;;38.83;22.35;;;13.60;99.90;;;;;;8359383;28;20029;-86
2022/10/21 08:46:40;;;;;;;32.72;18.33;;;13.60;99.90;;;;;;8335357;28;20041;-86
2022/10/21 08:50:45;;;;;;;42.13;20.88;;;13.90;99.90;;;;;;8347582;28;20052;-85
2022/10/21 08:55:04;;;;;;;35.40;18.83;;;14.00;99.90;;;;;;8343424;28;20611;-84
2022/10/21 08:59:19;;;;;;;39.35;20.23;;;14.20;99.90;;;;;;8322790;28;20666;-84
2022/10/21 09:03:40;;;;;;;30.85;17.50;;;14.20;99.90;;;;;;8341869;28;20108;-84
2022/10/21 09:08:05;;;;;;;28.52;17.50;;;14.60;99.90;;;;;;8333404;28;20053;-84
2022/10/21 09:12:32;;;;;;;38.72;20.25;;;14.70;99.90;;;;;;8332271;28;20040;-84
2022/10/21 09:16:59;;;;;;;33.05;15.50;;;14.90;99.90;;;;;;8351895;28;20033;-84
2022/10/21 09:21:12;;;;;;;24.60;15.27;;;15.60;99.90;;;;;;8326428;28;20040;-85
2022/10/21 09:25:25;;;;;;;27.23;15.98;;;15.90;99.90;;;;;;8326415;28;20025;-83
2022/10/21 09:29:50;;;;;;;23.38;13.55;;;16.20;99.90;;;;;;8348417;28;20068;-84
2022/10/21 09:34:00;;;;;;;22.17;12.18;;;16.20;99.90;;;;;;8342661;28;20029;-83
2022/10/21 09:38:05;;;;;;;21.98;13.20;;;16.10;99.90;;;;;;8359276;28;20517;-84
2022/10/21 09:42:11;;;;;;;22.05;13.18;;;15.80;99.90;;;;;;8349201;28;20505;-84
2022/10/21 09:46:13;;;;;;;23.02;12.27;;;15.90;99.90;;;;;;8341039;28;20415;-84
2022/10/21 09:50:16;;;;;;;22.85;12.68;;;16.10;99.90;;;;;;8371152;28;20022;-84
2022/10/21 09:54:20;;;;;;;20.35;11.52;;;16.20;99.90;;;;;;8357809;28;20021;-84
2022/10/21 09:58:26;;;;;;;25.50;12.85;;;16.10;99.90;;;;;;8341828;28;20108;-84
2022/10/21 10:02:42;;;;;;;293.27;125.72;;;15.90;99.90;;;;;;8348619;28;20055;-83
2022/10/21 10:06:43;;;;;;;47.70;34.75;;;15.80;99.90;;;;;;8377864;28;20028;-84
2022/10/21 10:10:44;;;;;;;152.68;73.28;;;16.10;99.90;;;;;;8352010;28;20505;-84
2022/10/21 10:14:45;;;;;;;16.65;10.40;;;16.70;99.90;;;;;;8359444;28;20033;-82
2022/10/21 10:18:46;;;;;;;13.15;8.00;;;17.20;99.90;;;;;;8338324;28;20032;-82
2022/10/21 10:22:59;;;;;;;14.60;7.93;;;17.40;99.90;;;;;;8360900;28;20063;-82
2022/10/21 10:27:04;;;;;;;14.60;7.60;;;17.60;99.90;;;;;;8354942;28;20037;-82
2022/10/21 10:31:05;;;;;;;11.25;7.07;;;17.60;99.90;;;;;;8333190;28;20497;-81
2022/10/21 10:35:36;;;;;;;15.27;7.35;;;17.80;99.90;;;;;;8366499;28;20113;-82
2022/10/21 10:39:38;;;;;;;12.32;6.55;;;18.10;99.90;;;;;;8320184;28;20038;-83
2022/10/21 10:43:52;;;;;;;12.25;6.05;;;18.10;99.90;;;;;;8322421;28;20563;-82
2022/10/21 10:47:56;;;;;;;9.77;5.43;;;17.90;99.90;;;;;;8369548;28;20025;-83
2022/10/21 10:52:20;;;;;;;10.82;4.80;;;17.90;99.90;;;;;;8335484;28;20032;-82
2022/10/21 10:56:33;;;;;;;6.75;3.33;;;18.00;99.90;;;;;;8326754;28;20025;-82
2022/10/21 11:00:40;;;;;;;6.55;3.05;;;17.70;99.90;;;;;;8366409;28;20433;-82
2022/10/21 11:05:09;;;;;;;7.22;4.85;;;17.40;99.90;;;;;;8325246;28;20043;-81
2022/10/21 11:09:10;;;;;;;3.85;2.20;;;16.90;99.90;;;;;;8327836;28;20071;-80
2022/10/21 11:13:14;;;;;;;3.70;2.35;;;16.60;99.90;;;;;;8339614;28;20034;-81
2022/10/21 11:17:21;;;;;;;4.30;2.58;;;16.40;99.90;;;;;;8324503;28;20029;-79
2022/10/21 11:22:03;;;;;;;7.13;2.40;;;16.00;99.90;;;;;;8341764;28;20031;-81
2022/10/21 11:26:18;;;;;;;5.07;2.22;;;15.80;99.90;;;;;;8336816;28;20033;-79
2022/10/21 11:30:21;;;;;;;5.47;2.30;;;15.70;99.90;;;;;;8348815;28;20025;-81
2022/10/21 11:34:27;;;;;;;3.33;2.10;;;15.70;99.90;;;;;;8326987;28;20035;-82
2022/10/21 11:38:51;;;;;;;3.08;1.70;;;15.60;99.90;;;;;;8360492;28;20025;-81
2022/10/21 11:42:55;;;;;;;3.92;2.03;;;15.50;99.90;;;;;;8354556;23;20049;-79
2022/10/21 11:47:29;;;;;;;2.67;1.83;;;15.50;99.90;;;;;;8346217;28;20412;-78
2022/10/21 11:51:34;;;;;;;3.72;1.65;;;15.30;99.90;;;;;;8362859;28;20036;-78
2022/10/21 11:55:43;;;;;;;5.20;1.63;;;15.20;99.90;;;;;;8345320;28;20512;-80
2022/10/21 12:00:09;;;;;;;2.72;1.90;;;15.40;99.90;;;;;;8341141;28;20053;-79
2022/10/21 12:04:29;;;;;;;2.30;1.90;;;15.40;99.90;;;;;;8338136;28;20607;-79
2022/10/21 12:08:51;;;;;;;3.42;2.22;;;15.60;99.90;;;;;;8337991;28;20024;-78
2022/10/21 12:12:54;;;;;;;3.42;2.20;;;15.70;99.90;;;;;;8334875;28;20021;-80
2022/10/21 12:16:56;;;;;;;4.22;2.42;;;15.70;99.90;;;;;;8355022;28;20104;-81
2022/10/21 12:20:58;;;;;;;5.38;3.70;;;15.80;99.90;;;;;;8329704;28;20033;-78
2022/10/21 12:25:11;;;;;;;4.50;3.25;;;15.70;99.90;;;;;;8346033;28;20040;-78
2022/10/21 12:29:15;;;;;;;7.43;3.47;;;15.70;99.90;;;;;;8311258;28;20022;-80
2022/10/21 12:33:19;;;;;;;9.48;4.25;;;15.90;99.90;;;;;;8330033;28;20025;-79
2022/10/21 12:37:43;;;;;;;6.70;3.65;;;16.00;99.90;;;;;;8319651;28;20026;-78
2022/10/21 12:41:47;;;;;;;7.15;3.65;;;16.00;99.90;;;;;;8340675;28;20031;-78
2022/10/21 12:46:07;;;;;;;7.07;3.63;;;16.10;99.90;;;;;;8341908;28;20040;-79
2022/10/21 12:50:13;;;;;;;6.85;4.15;;;16.00;99.90;;;;;;8345059;28;20040;-78
2022/10/21 12:54:19;;;;;;;7.53;4.43;;;15.90;99.90;;;;;;8333170;28;20025;-80
2022/10/21 12:58:24;;;;;;;6.85;5.40;;;15.90;99.90;;;;;;8316878;28;20108;-79
2022/10/21 13:02:27;;;;;;;5.90;4.00;;;15.90;99.90;;;;;;8341505;28;20079;-79
2022/10/21 13:06:49;;;;;;;6.45;3.95;;;16.00;99.90;;;;;;8357392;28;20052;-79
2022/10/21 13:11:02;;;;;;;9.60;7.07;;;16.10;99.90;;;;;;8345842;28;20029;-80
2022/10/21 13:15:28;;;;;;;7.35;3.67;;;16.00;99.90;;;;;;8362908;28;20048;-80
2022/10/21 13:19:33;;;;;;;6.47;3.25;;;16.10;99.90;;;;;;8333768;28;20033;-79
2022/10/21 13:23:39;;;;;;;6.03;3.50;;;16.00;99.90;;;;;;8327347;28;20037;-79
2022/10/21 13:27:47;;;;;;;4.18;2.97;;;16.10;99.90;;;;;;8363199;28;20056;-78
2022/10/21 13:32:13;;;;;;;4.15;3.10;;;16.00;99.90;;;;;;8348121;28;20022;-78
2022/10/21 13:36:14;;;;;;;4.43;2.80;;;15.90;99.90;;;;;;8314014;28;20032;-79
2022/10/21 13:40:18;;;;;;;3.95;2.88;;;16.00;99.90;;;;;;8324279;28;20046;-79
2022/10/21 13:44:27;;;;;;;4.93;3.47;;;16.00;99.90;;;;;;8328332;28;20083;-79
2022/10/21 13:48:28;;;;;;;4.80;2.80;;;16.00;99.90;;;;;;8313010;28;20026;-80
2022/10/21 13:52:29;;;;;;;4.68;2.38;;;16.10;99.90;;;;;;8328975;28;20029;-78
2022/10/21 13:56:33;;;;;;;5.82;2.88;;;16.00;99.90;;;;;;8334387;28;20022;-80
2022/10/21 14:00:34;;;;;;;5.10;2.72;;;16.10;99.90;;;;;;8319710;28;20045;-80
2022/10/21 14:04:39;;;;;;;2.97;2.40;;;16.10;99.90;;;;;;8316338;28;20510;-80
2022/10/21 14:08:43;;;;;;;3.20;2.85;;;16.40;99.90;;;;;;8321102;28;20025;-80
2022/10/21 14:12:45;;;;;;;3.85;2.75;;;16.50;99.90;;;;;;8294591;28;20041;-80
2022/10/21 14:17:04;;;;;;;2.95;2.10;;;16.50;99.90;;;;;;8331405;28;20056;-80
2022/10/21 14:21:07;;;;;;;3.85;2.45;;;16.50;99.90;;;;;;8337966;28;20530;-79
2022/10/21 14:25:14;;;;;;;4.07;2.60;;;16.40;99.90;;;;;;8319172;28;21018;-81
2022/10/21 14:29:15;;;;;;;4.78;2.25;;;16.30;99.90;;;;;;8313124;28;20029;-81
2022/10/21 14:33:23;;;;;;;5.63;2.25;;;16.20;99.90;;;;;;8300424;28;20029;-79
2022/10/21 14:37:23;;;;;;;8.57;2.38;;;16.30;99.90;;;;;;8303969;28;20026;-80
2022/10/21 14:41:37;;;;;;;4.22;2.20;;;16.30;99.90;;;;;;8313961;28;20041;-80
2022/10/21 14:45:44;;;;;;;1.70;1.60;;;16.20;99.90;;;;;;8310077;28;20485;-81
2022/10/21 14:49:48;;;;;;;6.38;2.00;;;16.30;99.90;;;;;;8326977;28;20051;-82
2022/10/21 14:54:04;;;;;;;3.00;1.77;;;16.30;99.90;;;;;;8330257;28;20021;-82
2022/10/21 14:58:09;;;;;;;5.20;3.03;;;16.10;99.90;;;;;;8305386;28;20414;-82
2022/10/21 15:02:24;;;;;;;3.95;2.17;;;15.90;99.90;;;;;;8311406;28;20040;-82
2022/10/21 15:06:30;;;;;;;3.05;2.00;;;15.80;99.90;;;;;;8317784;28;20505;-81
2022/10/21 15:10:32;;;;;;;4.65;2.40;;;15.70;99.90;;;;;;8322464;28;20109;-80
2022/10/21 15:14:33;;;;;;;3.67;2.33;;;15.80;99.90;;;;;;8326198;28;20389;-79
2022/10/21 15:18:42;;;;;;;5.80;2.30;;;15.80;99.90;;;;;;8335581;28;20071;-86
2022/10/21 15:22:47;;;;;;;4.22;2.83;;;15.60;99.90;;;;;;8310776;28;20093;-86
2022/10/21 15:26:50;;;;;;;6.15;2.72;;;15.70;99.90;;;;;;8311164;28;20028;-86
2022/10/21 15:30:51;;;;;;;5.38;2.60;;;15.60;99.90;;;;;;8300263;28;20092;-86
2022/10/21 15:34:52;;;;;;;6.20;2.83;;;15.60;99.90;;;;;;8329280;28;20021;-85
2022/10/21 15:38:54;;;;;;;3.90;2.22;;;15.50;99.90;;;;;;8314980;28;20029;-85
2022/10/21 15:42:55;;;;;;;3.28;1.77;;;15.30;99.90;;;;;;8343314;28;20033;-86
2022/10/21 15:46:59;;;;;;;3.65;1.60;;;15.20;99.90;;;;;;8329796;28;20075;-85
2022/10/21 15:51:00;;;;;;;7.03;3.30;;;15.10;99.90;;;;;;8324716;28;20021;-85
2022/10/21 15:55:00;;;;;;;4.53;2.97;;;15.10;99.90;;;;;;8312261;28;20030;-85
2022/10/21 15:59:01;;;;;;;2.60;2.33;;;15.00;99.90;;;;;;8323135;28;20045;-86
2022/10/21 16:03:02;;;;;;;4.18;2.47;;;14.80;99.90;;;;;;8310436;28;20044;-86
2022/10/21 16:07:40;;;;;;;3.80;2.28;;;14.60;99.90;;;;;;8326925;28;20437;-86
2022/10/21 16:11:41;;;;;;;3.40;2.55;;;14.60;99.90;;;;;;8270222;28;20497;-87
2022/10/21 16:15:42;;;;;;;4.00;2.72;;;14.60;99.90;;;;;;8310385;28;20049;-87
2022/10/21 16:19:42;;;;;;;3.28;2.40;;;14.60;99.90;;;;;;8314172;28;20029;-87
2022/10/21 16:23:43;;;;;;;8.13;2.40;;;14.70;99.90;;;;;;8322039;28;20025;-86
2022/10/21 16:27:44;;;;;;;4.43;2.78;;;14.40;99.90;;;;;;8333506;28;20021;-87
2022/10/21 16:31:45;;;;;;;3.85;2.67;;;14.40;99.90;;;;;;8325824;28;20385;-86
2022/10/21 16:35:47;;;;;;;13.63;3.72;;;14.20;99.90;;;;;;8329513;28;20109;-87
2022/10/21 16:39:48;;;;;;;7.35;3.60;;;14.00;99.90;;;;;;8341806;28;20112;-87
2022/10/21 16:43:48;;;;;;;6.80;3.47;;;14.30;99.90;;;;;;8309166;28;20247;-87
2022/10/21 16:47:52;;;;;;;6.53;4.22;;;14.30;99.90;;;;;;8323973;28;20782;-87
2022/10/21 16:51:53;;;;;;;8.48;4.63;;;14.20;99.90;;;;;;8335196;28;20021;-88
2022/10/21 16:55:54;;;;;;;10.07;5.10;;;14.10;99.90;;;;;;8314788;28;20038;-87
2022/10/21 16:59:55;;;;;;;10.38;5.40;;;13.90;99.90;;;;;;8312453;28;20029;-87
2022/10/21 17:03:55;;;;;;;12.25;7.82;;;13.70;99.90;;;;;;8335399;28;20512;-87
2022/10/21 17:07:57;;;;;;;9.45;5.68;;;13.60;99.90;;;;;;8331783;28;20379;-87
2022/10/21 17:11:58;;;;;;;9.00;5.75;;;13.70;99.90;;;;;;8330646;28;20490;-87
2022/10/21 17:15:58;;;;;;;15.02;7.68;;;13.60;99.90;;;;;;8327458;28;20028;-86
2022/10/21 17:19:59;;;;;;;11.73;6.40;;;13.50;99.90;;;;;;8314157;28;20036;-86
2022/10/21 17:24:01;;;;;;;13.48;8.40;;;13.50;99.90;;;;;;8333781;28;20025;-87
2022/10/21 17:28:01;;;;;;;9.77;6.47;;;13.50;99.90;;;;;;8335893;28;20029;-86
2022/10/21 17:32:03;;;;;;;12.52;6.72;;;13.50;99.90;;;;;;8321336;28;20033;-87
2022/10/21 17:36:04;;;;;;;10.10;6.65;;;13.50;99.90;;;;;;8332568;28;20516;-87
2022/10/21 17:40:05;;;;;;;13.73;6.43;;;13.40;99.90;;;;;;8308667;28;20030;-87
2022/10/21 17:44:06;;;;;;;12.45;7.45;;;13.30;99.90;;;;;;8307322;28;20591;-86
2022/10/21 17:48:06;;;;;;;13.40;8.23;;;13.30;99.90;;;;;;8324598;28;20044;-86
2022/10/21 17:52:07;;;;;;;18.42;12.50;;;13.20;99.90;;;;;;8308227;28;20029;-86
2022/10/21 17:56:10;;;;;;;20.08;12.55;;;13.10;99.90;;;;;;8309524;28;20513;-87
2022/10/21 18:00:11;;;;;;;19.05;9.50;;;13.10;99.90;;;;;;8304694;28;20026;-86
2022/10/21 18:04:12;;;;;;;17.80;9.90;;;13.10;99.90;;;;;;8321424;28;20708;-84
2022/10/21 18:08:13;;;;;;;14.05;10.55;;;13.00;99.90;;;;;;8314332;28;20088;-86
2022/10/21 18:12:14;;;;;;;26.73;15.77;;;13.00;99.90;;;;;;8347620;28;20485;-86
2022/10/21 18:16:17;;;;;;;30.52;19.67;;;13.00;99.90;;;;;;8347216;28;20029;-86
2022/10/21 18:20:18;;;;;;;23.98;16.67;;;12.80;99.90;;;;;;8336378;28;20086;-86
2022/10/21 18:24:19;;;;;;;17.00;9.93;;;12.90;99.90;;;;;;8303856;28;20120;-86
2022/10/21 18:28:19;;;;;;;10.38;7.22;;;12.90;99.90;;;;;;8321894;28;20079;-86
2022/10/21 18:32:20;;;;;;;14.27;9.93;;;12.90;99.90;;;;;;8345311;28;20480;-86
2022/10/21 18:36:21;;;;;;;17.52;9.50;;;12.90;99.90;;;;;;8342710;28;20029;-87
2022/10/21 18:40:22;;;;;;;15.45;10.25;;;12.70;99.90;;;;;;8291571;28;20038;-86
2022/10/21 18:44:22;;;;;;;12.20;8.13;;;12.70;99.90;;;;;;8308577;28;20098;-86
2022/10/21 18:48:23;;;;;;;12.15;5.97;;;12.60;99.90;;;;;;8291153;28;20026;-86
2022/10/21 18:52:23;;;;;;;16.35;11.98;;;12.60;99.90;;;;;;8330065;28;20076;-86
2022/10/21 18:56:25;;;;;;;10.77;5.38;;;12.50;99.90;;;;;;8305349;28;20030;-86
2022/10/21 19:00:26;;;;;;;14.25;6.78;;;12.60;99.90;;;;;;8330619;28;20029;-86
2022/10/21 19:04:27;;;;;;;13.80;6.00;;;12.60;99.90;;;;;;8331440;28;20022;-86
2022/10/21 19:08:27;;;;;;;11.95;6.30;;;12.60;99.90;;;;;;8336074;28;20025;-86
2022/10/21 19:12:28;;;;;;;8.40;5.82;;;12.80;99.90;;;;;;8320776;28;20060;-86
2022/10/21 19:16:29;;;;;;;13.57;8.18;;;12.80;99.90;;;;;;8328363;28;20075;-86
2022/10/21 19:20:30;;;;;;;11.98;5.00;;;12.80;99.90;;;;;;8323411;28;20543;-86
2022/10/21 19:24:30;;;;;;;5.20;2.88;;;12.90;99.90;;;;;;8333540;28;20068;-82
2022/10/21 19:28:32;;;;;;;8.15;4.25;;;12.90;99.90;;;;;;8332810;28;20366;-81
2022/10/21 19:32:32;;;;;;;17.08;9.85;;;12.80;99.90;;;;;;8351719;28;20056;-82
2022/10/21 19:36:33;;;;;;;21.83;11.43;;;12.80;99.90;;;;;;8327035;28;20447;-82
2022/10/21 19:40:34;;;;;;;16.75;10.70;;;12.80;99.90;;;;;;8309200;28;20044;-83
2022/10/21 19:44:34;;;;;;;17.63;11.55;;;12.50;99.90;;;;;;8321870;28;20040;-82
2022/10/21 19:48:35;;;;;;;17.05;9.90;;;12.30;99.90;;;;;;8351722;28;20025;-81
2022/10/21 19:52:36;;;;;;;16.83;9.30;;;12.40;99.90;;;;;;8317761;28;20013;-82
2022/10/21 19:56:37;;;;;;;9.80;6.28;;;12.40;99.90;;;;;;8315338;28;20026;-83
2022/10/21 20:00:37;;;;;;;13.52;6.60;;;12.40;99.90;;;;;;8345252;28;20083;-82
2022/10/21 20:04:38;;;;;;;10.05;6.38;;;12.50;99.90;;;;;;8342756;28;20279;-82
2022/10/21 20:08:40;;;;;;;11.80;5.75;;;12.40;99.90;;;;;;8339548;28;20034;-82
2022/10/21 20:12:41;;;;;;;7.03;4.82;;;12.50;99.90;;;;;;8317416;28;20026;-81
2022/10/21 20:16:42;;;;;;;5.95;4.22;;;12.60;99.90;;;;;;8312695;28;20101;-82
2022/10/21 20:20:42;;;;;;;5.88;3.85;;;12.70;99.90;;;;;;8309095;28;20025;-82
2022/10/21 20:24:43;;;;;;;8.90;3.92;;;12.70;99.90;;;;;;8326309;28;20108;-82
2022/10/21 20:28:44;;;;;;;9.48;4.70;;;12.70;99.90;;;;;;8329647;28;20021;-82
2022/10/21 20:32:44;;;;;;;11.10;5.38;;;12.70;99.90;;;;;;8324349;28;20026;-82
2022/10/21 20:36:45;;;;;;;10.05;5.32;;;12.90;99.90;;;;;;8330251;28;20026;-82
2022/10/21 20:40:53;;;;;;;7.38;4.30;;;12.90;99.90;;;;;;8329520;28;20021;-81
2022/10/21 20:44:54;;;;;;;10.73;4.20;;;12.90;99.90;;;;;;8332005;28;20064;-82
2022/10/21 20:48:54;;;;;;;8.48;5.22;;;12.80;99.90;;;;;;8340312;28;20036;-81
2022/10/21 20:52:55;;;;;;;14.93;7.78;;;12.70;99.90;;;;;;8322791;28;20117;-82